sensor_id;sensor_type;location;lat;lon;timestamp;temperature;humidity
62339;DHT22;48368;53.406;6.214;2022-10-16T00:01:35;12.60;99.90
62339;DHT22;48368;53.406;6.214;2022-10-16T00:04:01;12.50;99.90
62339;DHT22;48368;53.406;6.214;2022-10-16T00:06:27;12.50;99.90
62339;DHT22;48368;53.406;6.214;2022-10-16T00:08:54;12.40;99.90
62339;DHT22;48368;53.406;6.214;2022-10-16T00:11:22;12.40;99.90
62339;DHT22;48368;53.406;6.214;2022-10-16T00:13:50;12.40;99.90
62339;DHT22;48368;53.406;6.214;2022-10-16T00:16:16;12.40;99.90
62339;DHT22;48368;53.406;6.214;2022-10-16T00:18:42;12.40;99.90
62339;DHT22;48368;53.406;6.214;2022-10-16T00:21:14;12.40;99.90
62339;DHT22;48368;53.406;6.214;2022-10-16T00:23:40;12.30;99.90
62339;DHT22;48368;53.406;6.214;2022-10-16T00:26:09;12.30;99.90
62339;DHT22;48368;53.406;6.214;2022-10-16T00:28:36;12.30;99.90
62339;DHT22;48368;53.406;6.214;2022-10-16T00:31:10;12.30;99.90
62339;DHT22;48368;53.406;6.214;2022-10-16T00:33:37;12.30;99.90
62339;DHT22;48368;53.406;6.214;2022-10-16T00:36:04;12.30;99.90
62339;DHT22;48368;53.406;6.214;2022-10-16T00:38:31;12.30;99.90
62339;DHT22;48368;53.406;6.214;2022-10-16T00:40:57;12.20;99.90
62339;DHT22;48368;53.406;6.214;2022-10-16T00:43:38;12.30;99.90
62339;DHT22;48368;53.406;6.214;2022-10-16T00:46:15;12.20;99.90
62339;DHT22;48368;53.406;6.214;2022-10-16T00:48:47;12.20;99.90
62339;DHT22;48368;53.406;6.214;2022-10-16T00:51:14;12.20;99.90
62339;DHT22;48368;53.406;6.214;2022-10-16T00:53:39;12.20;99.90
62339;DHT22;48368;53.406;6.214;2022-10-16T00:56:05;12.20;99.90
62339;DHT22;48368;53.406;6.214;2022-10-16T00:58:32;12.20;99.90
62339;DHT22;48368;53.406;6.214;2022-10-16T01:00:57;12.20;99.90
62339;DHT22;48368;53.406;6.214;2022-10-16T01:03:29;12.10;99.90
62339;DHT22;48368;53.406;6.214;2022-10-16T01:06:30;12.10;99.90
62339;DHT22;48368;53.406;6.214;2022-10-16T01:09:21;12.10;99.90
62339;DHT22;48368;53.406;6.214;2022-10-16T01:12:01;12.20;99.90
62339;DHT22;48368;53.406;6.214;2022-10-16T01:17:38;12.20;99.90
62339;DHT22;48368;53.406;6.214;2022-10-16T01:20:29;12.10;99.90
62339;DHT22;48368;53.406;6.214;2022-10-16T01:28:15;12.10;99.90
62339;DHT22;48368;53.406;6.214;2022-10-16T01:30:43;12.20;99.90
62339;DHT22;48368;53.406;6.214;2022-10-16T01:33:16;12.20;99.90
62339;DHT22;48368;53.406;6.214;2022-10-16T01:35:58;12.10;99.90
62339;DHT22;48368;53.406;6.214;2022-10-16T01:38:34;12.20;99.90
62339;DHT22;48368;53.406;6.214;2022-10-16T01:41:17;12.30;99.90
62339;DHT22;48368;53.406;6.214;2022-10-16T01:43:49;12.30;99.90
62339;DHT22;48368;53.406;6.214;2022-10-16T01:46:20;12.30;99.90
62339;DHT22;48368;53.406;6.214;2022-10-16T01:48:48;12.30;99.90
62339;DHT22;48368;53.406;6.214;2022-10-16T01:51:14;12.40;99.90
62339;DHT22;48368;53.406;6.214;2022-10-16T01:53:44;12.40;99.90
62339;DHT22;48368;53.406;6.214;2022-10-16T01:56:13;12.50;99.90
62339;DHT22;48368;53.406;6.214;2022-10-16T01:58:45;12.40;99.90
62339;DHT22;48368;53.406;6.214;2022-10-16T02:01:13;12.50;99.90
62339;DHT22;48368;53.406;6.214;2022-10-16T02:03:41;12.50;99.90
62339;DHT22;48368;53.406;6.214;2022-10-16T02:06:08;12.50;99.90
62339;DHT22;48368;53.406;6.214;2022-10-16T02:08:34;12.50;99.90
62339;DHT22;48368;53.406;6.214;2022-10-16T02:11:01;12.50;99.90
62339;DHT22;48368;53.406;6.214;2022-10-16T02:13:33;12.60;99.90
62339;DHT22;48368;53.406;6.214;2022-10-16T02:15:59;12.60;99.90
62339;DHT22;48368;53.406;6.214;2022-10-16T02:18:25;12.60;99.90
62339;DHT22;48368;53.406;6.214;2022-10-16T02:23:41;12.60;99.90
62339;DHT22;48368;53.406;6.214;2022-10-16T02:26:13;12.60;99.90
62339;DHT22;48368;53.406;6.214;2022-10-16T02:28:50;12.60;99.90
62339;DHT22;48368;53.406;6.214;2022-10-16T02:31:23;12.60;99.90
62339;DHT22;48368;53.406;6.214;2022-10-16T02:48:49;12.40;99.90
62339;DHT22;48368;53.406;6.214;2022-10-16T02:51:14;12.50;99.90
62339;DHT22;48368;53.406;6.214;2022-10-16T02:53:40;12.40;99.90
62339;DHT22;48368;53.406;6.214;2022-10-16T02:56:06;12.40;99.90
62339;DHT22;48368;53.406;6.214;2022-10-16T02:58:31;12.40;99.90
62339;DHT22;48368;53.406;6.214;2022-10-16T03:00:57;12.40;99.90
62339;DHT22;48368;53.406;6.214;2022-10-16T03:03:23;12.30;99.90
62339;DHT22;48368;53.406;6.214;2022-10-16T03:05:48;12.30;99.90
62339;DHT22;48368;53.406;6.214;2022-10-16T03:08:14;12.30;99.90
62339;DHT22;48368;53.406;6.214;2022-10-16T03:10:40;12.20;99.90
62339;DHT22;48368;53.406;6.214;2022-10-16T03:13:05;12.20;99.90
62339;DHT22;48368;53.406;6.214;2022-10-16T03:15:31;12.30;99.90
62339;DHT22;48368;53.406;6.214;2022-10-16T03:18:00;12.30;99.90
62339;DHT22;48368;53.406;6.214;2022-10-16T03:20:26;12.30;99.90
62339;DHT22;48368;53.406;6.214;2022-10-16T03:22:52;12.30;99.90
62339;DHT22;48368;53.406;6.214;2022-10-16T03:25:18;12.30;99.90
62339;DHT22;48368;53.406;6.214;2022-10-16T03:27:43;12.20;99.90
62339;DHT22;48368;53.406;6.214;2022-10-16T03:30:09;12.20;99.90
62339;DHT22;48368;53.406;6.214;2022-10-16T03:32:35;12.20;99.90
62339;DHT22;48368;53.406;6.214;2022-10-16T03:35:00;12.20;99.90
62339;DHT22;48368;53.406;6.214;2022-10-16T03:37:26;12.20;99.90
62339;DHT22;48368;53.406;6.214;2022-10-16T03:39:52;12.20;99.90
62339;DHT22;48368;53.406;6.214;2022-10-16T03:42:17;12.20;99.90
62339;DHT22;48368;53.406;6.214;2022-10-16T03:44:43;12.20;99.90
62339;DHT22;48368;53.406;6.214;2022-10-16T03:47:09;12.20;99.90
62339;DHT22;48368;53.406;6.214;2022-10-16T03:49:34;12.20;99.90
62339;DHT22;48368;53.406;6.214;2022-10-16T03:52:00;12.20;99.90
62339;DHT22;48368;53.406;6.214;2022-10-16T03:54:25;12.10;99.90
62339;DHT22;48368;53.406;6.214;2022-10-16T03:56:51;12.10;99.90
62339;DHT22;48368;53.406;6.214;2022-10-16T03:59:17;12.10;99.90
62339;DHT22;48368;53.406;6.214;2022-10-16T04:01:42;12.10;99.90
62339;DHT22;48368;53.406;6.214;2022-10-16T04:04:08;12.10;99.90
62339;DHT22;48368;53.406;6.214;2022-10-16T04:07:04;12.10;99.90
62339;DHT22;48368;53.406;6.214;2022-10-16T04:09:30;12.10;99.90
62339;DHT22;48368;53.406;6.214;2022-10-16T04:11:56;12.10;99.90
62339;DHT22;48368;53.406;6.214;2022-10-16T04:14:22;12.00;99.90
62339;DHT22;48368;53.406;6.214;2022-10-16T04:16:47;12.00;99.90
62339;DHT22;48368;53.406;6.214;2022-10-16T04:19:13;12.00;99.90
62339;DHT22;48368;53.406;6.214;2022-10-16T04:21:39;12.10;99.90
62339;DHT22;48368;53.406;6.214;2022-10-16T04:24:04;12.10;99.90
62339;DHT22;48368;53.406;6.214;2022-10-16T04:26:30;12.10;99.90
62339;DHT22;48368;53.406;6.214;2022-10-16T04:28:56;12.10;99.90
62339;DHT22;48368;53.406;6.214;2022-10-16T04:31:21;12.10;99.90
62339;DHT22;48368;53.406;6.214;2022-10-16T04:33:47;12.10;99.90
62339;DHT22;48368;53.406;6.214;2022-10-16T04:36:13;12.10;99.90
62339;DHT22;48368;53.406;6.214;2022-10-16T04:38:39;12.20;99.90
62339;DHT22;48368;53.406;6.214;2022-10-16T04:41:06;12.20;99.90
62339;DHT22;48368;53.406;6.214;2022-10-16T04:43:33;12.20;99.90
62339;DHT22;48368;53.406;6.214;2022-10-16T04:45:59;12.20;99.90
62339;DHT22;48368;53.406;6.214;2022-10-16T04:48:24;12.30;99.90
62339;DHT22;48368;53.406;6.214;2022-10-16T04:50:50;12.30;99.90
62339;DHT22;48368;53.406;6.214;2022-10-16T04:53:16;12.30;99.90
62339;DHT22;48368;53.406;6.214;2022-10-16T04:55:42;12.40;99.90
62339;DHT22;48368;53.406;6.214;2022-10-16T04:58:07;12.40;99.90
62339;DHT22;48368;53.406;6.214;2022-10-16T05:00:34;12.30;99.90
62339;DHT22;48368;53.406;6.214;2022-10-16T05:03:00;12.30;99.90
62339;DHT22;48368;53.406;6.214;2022-10-16T05:05:26;12.30;99.90
62339;DHT22;48368;53.406;6.214;2022-10-16T05:07:52;12.30;99.90
62339;DHT22;48368;53.406;6.214;2022-10-16T05:10:18;12.30;99.90
62339;DHT22;48368;53.406;6.214;2022-10-16T05:12:44;12.30;99.90
62339;DHT22;48368;53.406;6.214;2022-10-16T05:15:09;12.30;99.90
62339;DHT22;48368;53.406;6.214;2022-10-16T05:17:35;12.30;99.90
62339;DHT22;48368;53.406;6.214;2022-10-16T05:20:01;12.30;99.90
62339;DHT22;48368;53.406;6.214;2022-10-16T05:22:26;12.30;99.90
62339;DHT22;48368;53.406;6.214;2022-10-16T05:24:52;12.30;99.90
62339;DHT22;48368;53.406;6.214;2022-10-16T05:27:17;12.30;99.90
62339;DHT22;48368;53.406;6.214;2022-10-16T05:29:47;12.30;99.90
62339;DHT22;48368;53.406;6.214;2022-10-16T05:32:17;12.30;99.90
62339;DHT22;48368;53.406;6.214;2022-10-16T05:34:42;12.30;99.90
62339;DHT22;48368;53.406;6.214;2022-10-16T05:37:09;12.40;99.90
62339;DHT22;48368;53.406;6.214;2022-10-16T05:39:34;12.30;99.90
62339;DHT22;48368;53.406;6.214;2022-10-16T05:42:02;12.40;99.90
62339;DHT22;48368;53.406;6.214;2022-10-16T05:44:28;12.40;99.90
62339;DHT22;48368;53.406;6.214;2022-10-16T05:46:53;12.30;99.90
62339;DHT22;48368;53.406;6.214;2022-10-16T05:49:19;12.30;99.90
62339;DHT22;48368;53.406;6.214;2022-10-16T05:51:44;12.30;99.90
62339;DHT22;48368;53.406;6.214;2022-10-16T05:54:10;12.40;99.90
62339;DHT22;48368;53.406;6.214;2022-10-16T05:56:36;12.40;99.90
62339;DHT22;48368;53.406;6.214;2022-10-16T05:59:03;12.40;99.90
62339;DHT22;48368;53.406;6.214;2022-10-16T06:01:29;12.40;99.90
62339;DHT22;48368;53.406;6.214;2022-10-16T06:03:56;12.30;99.90
62339;DHT22;48368;53.406;6.214;2022-10-16T06:06:24;12.30;99.90
62339;DHT22;48368;53.406;6.214;2022-10-16T06:08:51;12.40;99.90
62339;DHT22;48368;53.406;6.214;2022-10-16T06:11:26;12.40;99.90
62339;DHT22;48368;53.406;6.214;2022-10-16T06:17:29;12.30;99.90
62339;DHT22;48368;53.406;6.214;2022-10-16T06:19:55;12.40;99.90
62339;DHT22;48368;53.406;6.214;2022-10-16T06:22:20;12.40;99.90
62339;DHT22;48368;53.406;6.214;2022-10-16T06:24:46;12.40;99.90
62339;DHT22;48368;53.406;6.214;2022-10-16T06:27:13;12.40;99.90
62339;DHT22;48368;53.406;6.214;2022-10-16T06:29:38;12.40;99.90
62339;DHT22;48368;53.406;6.214;2022-10-16T06:32:04;12.40;99.90
62339;DHT22;48368;53.406;6.214;2022-10-16T06:34:29;12.40;99.90
62339;DHT22;48368;53.406;6.214;2022-10-16T06:36:55;12.40;99.90
62339;DHT22;48368;53.406;6.214;2022-10-16T06:39:21;12.40;99.90
62339;DHT22;48368;53.406;6.214;2022-10-16T06:41:46;12.30;99.90
62339;DHT22;48368;53.406;6.214;2022-10-16T06:44:12;12.40;99.90
62339;DHT22;48368;53.406;6.214;2022-10-16T06:46:38;12.40;99.90
62339;DHT22;48368;53.406;6.214;2022-10-16T06:49:03;12.40;99.90
62339;DHT22;48368;53.406;6.214;2022-10-16T06:51:29;12.40;99.90
62339;DHT22;48368;53.406;6.214;2022-10-16T06:53:57;12.40;99.90
62339;DHT22;48368;53.406;6.214;2022-10-16T06:56:25;12.40;99.90
62339;DHT22;48368;53.406;6.214;2022-10-16T06:58:52;12.50;99.90
62339;DHT22;48368;53.406;6.214;2022-10-16T07:01:20;12.50;99.90
62339;DHT22;48368;53.406;6.214;2022-10-16T07:03:47;12.50;99.90
62339;DHT22;48368;53.406;6.214;2022-10-16T07:06:15;12.50;99.90
62339;DHT22;48368;53.406;6.214;2022-10-16T07:08:42;12.50;99.90
62339;DHT22;48368;53.406;6.214;2022-10-16T07:11:13;12.50;99.90
62339;DHT22;48368;53.406;6.214;2022-10-16T07:13:42;12.60;99.90
62339;DHT22;48368;53.406;6.214;2022-10-16T07:16:16;12.50;99.90
62339;DHT22;48368;53.406;6.214;2022-10-16T07:18:42;12.70;99.90
62339;DHT22;48368;53.406;6.214;2022-10-16T07:21:12;12.70;99.90
62339;DHT22;48368;53.406;6.214;2022-10-16T07:23:39;12.80;99.90
62339;DHT22;48368;53.406;6.214;2022-10-16T07:26:06;12.80;99.90
62339;DHT22;48368;53.406;6.214;2022-10-16T07:28:32;12.90;99.90
62339;DHT22;48368;53.406;6.214;2022-10-16T07:31:09;12.90;99.90
62339;DHT22;48368;53.406;6.214;2022-10-16T07:33:37;13.00;99.90
62339;DHT22;48368;53.406;6.214;2022-10-16T07:36:04;13.00;99.90
62339;DHT22;48368;53.406;6.214;2022-10-16T07:38:30;12.90;99.90
62339;DHT22;48368;53.406;6.214;2022-10-16T07:40:57;13.10;99.90
62339;DHT22;48368;53.406;6.214;2022-10-16T07:43:23;13.00;99.90
62339;DHT22;48368;53.406;6.214;2022-10-16T07:45:49;13.10;99.90
62339;DHT22;48368;53.406;6.214;2022-10-16T07:48:17;13.10;99.90
62339;DHT22;48368;53.406;6.214;2022-10-16T07:50:43;13.10;99.90
62339;DHT22;48368;53.406;6.214;2022-10-16T07:53:09;13.20;99.90
62339;DHT22;48368;53.406;6.214;2022-10-16T07:55:35;13.30;99.90
62339;DHT22;48368;53.406;6.214;2022-10-16T07:58:01;13.30;99.90
62339;DHT22;48368;53.406;6.214;2022-10-16T08:00:26;13.40;99.90
62339;DHT22;48368;53.406;6.214;2022-10-16T08:02:52;13.40;99.90
62339;DHT22;48368;53.406;6.214;2022-10-16T08:05:18;13.50;99.90
62339;DHT22;48368;53.406;6.214;2022-10-16T08:07:48;13.50;99.90
62339;DHT22;48368;53.406;6.214;2022-10-16T08:10:19;13.50;99.90
62339;DHT22;48368;53.406;6.214;2022-10-16T08:12:45;13.50;99.90
62339;DHT22;48368;53.406;6.214;2022-10-16T08:15:10;13.50;99.90
62339;DHT22;48368;53.406;6.214;2022-10-16T08:17:36;13.40;99.90
62339;DHT22;48368;53.406;6.214;2022-10-16T08:20:02;13.50;99.90
62339;DHT22;48368;53.406;6.214;2022-10-16T08:22:28;13.50;99.90
62339;DHT22;48368;53.406;6.214;2022-10-16T08:24:53;13.60;99.90
62339;DHT22;48368;53.406;6.214;2022-10-16T08:27:19;13.70;99.90
62339;DHT22;48368;53.406;6.214;2022-10-16T08:29:44;13.80;99.90
62339;DHT22;48368;53.406;6.214;2022-10-16T08:32:10;13.80;99.90
62339;DHT22;48368;53.406;6.214;2022-10-16T08:34:36;13.90;99.90
62339;DHT22;48368;53.406;6.214;2022-10-16T08:37:01;14.00;99.90
62339;DHT22;48368;53.406;6.214;2022-10-16T08:39:27;14.00;99.90
62339;DHT22;48368;53.406;6.214;2022-10-16T08:44:58;14.10;99.90
62339;DHT22;48368;53.406;6.214;2022-10-16T08:47:49;14.10;99.90
62339;DHT22;48368;53.406;6.214;2022-10-16T08:50:25;14.10;99.90
62339;DHT22;48368;53.406;6.214;2022-10-16T08:52:53;14.10;99.90
62339;DHT22;48368;53.406;6.214;2022-10-16T08:55:43;14.10;99.90
62339;DHT22;48368;53.406;6.214;2022-10-16T08:58:16;14.20;99.90
62339;DHT22;48368;53.406;6.214;2022-10-16T09:00:44;14.40;99.90
62339;DHT22;48368;53.406;6.214;2022-10-16T09:17:32;15.00;99.90
62339;DHT22;48368;53.406;6.214;2022-10-16T09:23:15;15.10;99.90
62339;DHT22;48368;53.406;6.214;2022-10-16T09:25:43;15.20;99.90
62339;DHT22;48368;53.406;6.214;2022-10-16T09:28:09;15.20;99.90
62339;DHT22;48368;53.406;6.214;2022-10-16T09:30:35;15.40;99.90
62339;DHT22;48368;53.406;6.214;2022-10-16T09:33:01;15.40;99.90
62339;DHT22;48368;53.406;6.214;2022-10-16T09:35:45;15.50;99.90
62339;DHT22;48368;53.406;6.214;2022-10-16T09:38:42;15.50;99.90
62339;DHT22;48368;53.406;6.214;2022-10-16T09:41:18;15.80;99.90
62339;DHT22;48368;53.406;6.214;2022-10-16T09:43:56;15.90;99.90
62339;DHT22;48368;53.406;6.214;2022-10-16T09:49:16;16.00;99.90
62339;DHT22;48368;53.406;6.214;2022-10-16T09:51:43;16.00;99.90
62339;DHT22;48368;53.406;6.214;2022-10-16T09:56:36;16.00;99.90
62339;DHT22;48368;53.406;6.214;2022-10-16T09:59:11;15.90;99.90
62339;DHT22;48368;53.406;6.214;2022-10-16T10:01:48;15.90;99.90
62339;DHT22;48368;53.406;6.214;2022-10-16T10:04:16;15.90;99.90
62339;DHT22;48368;53.406;6.214;2022-10-16T10:06:47;15.80;99.90
62339;DHT22;48368;53.406;6.214;2022-10-16T10:09:21;15.90;99.90
62339;DHT22;48368;53.406;6.214;2022-10-16T10:16:44;16.10;99.90
62339;DHT22;48368;53.406;6.214;2022-10-16T10:19:15;16.10;99.90
62339;DHT22;48368;53.406;6.214;2022-10-16T10:21:41;16.30;99.90
62339;DHT22;48368;53.406;6.214;2022-10-16T10:24:12;16.60;99.90
62339;DHT22;48368;53.406;6.214;2022-10-16T10:26:38;16.50;99.90
62339;DHT22;48368;53.406;6.214;2022-10-16T10:29:26;16.40;99.90
62339;DHT22;48368;53.406;6.214;2022-10-16T10:32:21;16.40;99.90
62339;DHT22;48368;53.406;6.214;2022-10-16T10:44:50;16.00;99.90
62339;DHT22;48368;53.406;6.214;2022-10-16T10:47:13;16.20;99.90
62339;DHT22;48368;53.406;6.214;2022-10-16T10:50:11;16.40;99.90
62339;DHT22;48368;53.406;6.214;2022-10-16T10:52:58;16.50;99.90
62339;DHT22;48368;53.406;6.214;2022-10-16T10:58:40;16.70;99.90
62339;DHT22;48368;53.406;6.214;2022-10-16T11:01:09;16.80;99.90
62339;DHT22;48368;53.406;6.214;2022-10-16T11:07:02;16.80;99.90
62339;DHT22;48368;53.406;6.214;2022-10-16T11:09:36;16.80;99.90
62339;DHT22;48368;53.406;6.214;2022-10-16T11:14:51;17.00;99.90
62339;DHT22;48368;53.406;6.214;2022-10-16T11:17:25;16.90;99.90
62339;DHT22;48368;53.406;6.214;2022-10-16T11:22:54;16.80;99.90
62339;DHT22;48368;53.406;6.214;2022-10-16T11:28:20;16.80;99.90
62339;DHT22;48368;53.406;6.214;2022-10-16T11:33:49;16.60;99.90
62339;DHT22;48368;53.406;6.214;2022-10-16T11:36:26;16.70;99.90
62339;DHT22;48368;53.406;6.214;2022-10-16T11:41:32;16.80;99.90
62339;DHT22;48368;53.406;6.214;2022-10-16T11:44:34;16.90;99.90
62339;DHT22;48368;53.406;6.214;2022-10-16T11:49:31;17.10;99.90
62339;DHT22;48368;53.406;6.214;2022-10-16T11:52:15;17.10;99.90
62339;DHT22;48368;53.406;6.214;2022-10-16T11:54:51;17.20;99.90
62339;DHT22;48368;53.406;6.214;2022-10-16T11:57:28;17.20;99.90
62339;DHT22;48368;53.406;6.214;2022-10-16T12:00:14;17.10;99.90
62339;DHT22;48368;53.406;6.214;2022-10-16T12:05:49;17.20;99.90
62339;DHT22;48368;53.406;6.214;2022-10-16T12:08:18;17.20;99.90
62339;DHT22;48368;53.406;6.214;2022-10-16T12:10:46;17.10;99.90
62339;DHT22;48368;53.406;6.214;2022-10-16T12:13:37;17.00;99.90
62339;DHT22;48368;53.406;6.214;2022-10-16T12:18:33;16.60;99.90
62339;DHT22;48368;53.406;6.214;2022-10-16T12:20:59;16.40;99.90
62339;DHT22;48368;53.406;6.214;2022-10-16T12:23:31;16.30;99.90
62339;DHT22;48368;53.406;6.214;2022-10-16T12:25:59;16.30;99.90
62339;DHT22;48368;53.406;6.214;2022-10-16T12:28:30;16.40;99.90
62339;DHT22;48368;53.406;6.214;2022-10-16T12:30:57;16.50;99.90
62339;DHT22;48368;53.406;6.214;2022-10-16T12:33:32;16.60;99.90
62339;DHT22;48368;53.406;6.214;2022-10-16T12:36:00;16.60;99.90
62339;DHT22;48368;53.406;6.214;2022-10-16T12:38:32;16.60;99.90
62339;DHT22;48368;53.406;6.214;2022-10-16T12:41:08;16.60;99.90
62339;DHT22;48368;53.406;6.214;2022-10-16T12:48:32;16.60;99.90
62339;DHT22;48368;53.406;6.214;2022-10-16T12:51:10;16.60;99.90
62339;DHT22;48368;53.406;6.214;2022-10-16T12:53:35;16.60;99.90
62339;DHT22;48368;53.406;6.214;2022-10-16T12:56:14;16.60;99.90
62339;DHT22;48368;53.406;6.214;2022-10-16T12:59:06;16.70;99.90
62339;DHT22;48368;53.406;6.214;2022-10-16T13:07:31;16.70;99.90
62339;DHT22;48368;53.406;6.214;2022-10-16T13:10:13;16.80;99.90
62339;DHT22;48368;53.406;6.214;2022-10-16T13:24:14;16.70;99.90
62339;DHT22;48368;53.406;6.214;2022-10-16T13:26:49;16.70;99.90
62339;DHT22;48368;53.406;6.214;2022-10-16T13:29:19;16.70;99.90
62339;DHT22;48368;53.406;6.214;2022-10-16T13:31:45;16.60;99.90
62339;DHT22;48368;53.406;6.214;2022-10-16T13:34:17;16.80;99.90
62339;DHT22;48368;53.406;6.214;2022-10-16T13:36:45;16.80;99.90
62339;DHT22;48368;53.406;6.214;2022-10-16T13:41:40;16.70;99.90
62339;DHT22;48368;53.406;6.214;2022-10-16T13:44:19;16.70;99.90
62339;DHT22;48368;53.406;6.214;2022-10-16T13:46:46;16.50;99.90
62339;DHT22;48368;53.406;6.214;2022-10-16T13:49:16;16.50;99.90
62339;DHT22;48368;53.406;6.214;2022-10-16T13:51:54;16.50;99.90
62339;DHT22;48368;53.406;6.214;2022-10-16T13:54:21;16.50;99.90
62339;DHT22;48368;53.406;6.214;2022-10-16T13:56:46;16.50;99.90
62339;DHT22;48368;53.406;6.214;2022-10-16T13:59:41;16.40;99.90
62339;DHT22;48368;53.406;6.214;2022-10-16T14:05:01;16.40;99.90
62339;DHT22;48368;53.406;6.214;2022-10-16T14:07:29;16.50;99.90
62339;DHT22;48368;53.406;6.214;2022-10-16T14:10:01;16.60;99.90
62339;DHT22;48368;53.406;6.214;2022-10-16T14:12:27;16.60;99.90
62339;DHT22;48368;53.406;6.214;2022-10-16T14:14:54;16.60;99.90
62339;DHT22;48368;53.406;6.214;2022-10-16T14:17:26;16.70;99.90
62339;DHT22;48368;53.406;6.214;2022-10-16T14:19:55;16.70;99.90
62339;DHT22;48368;53.406;6.214;2022-10-16T14:22:31;16.60;99.90
62339;DHT22;48368;53.406;6.214;2022-10-16T14:24:58;16.60;99.90
62339;DHT22;48368;53.406;6.214;2022-10-16T14:30:18;16.50;99.90
62339;DHT22;48368;53.406;6.214;2022-10-16T14:33:03;16.50;99.90
62339;DHT22;48368;53.406;6.214;2022-10-16T14:35:35;16.40;99.90
62339;DHT22;48368;53.406;6.214;2022-10-16T14:38:03;16.40;99.90
62339;DHT22;48368;53.406;6.214;2022-10-16T14:40:32;16.30;99.90
62339;DHT22;48368;53.406;6.214;2022-10-16T14:42:59;16.20;99.90
62339;DHT22;48368;53.406;6.214;2022-10-16T14:45:27;16.10;99.90
62339;DHT22;48368;53.406;6.214;2022-10-16T14:47:56;16.00;99.90
62339;DHT22;48368;53.406;6.214;2022-10-16T14:50:23;15.90;99.90
62339;DHT22;48368;53.406;6.214;2022-10-16T14:52:49;15.90;99.90
62339;DHT22;48368;53.406;6.214;2022-10-16T14:55:14;15.80;99.90
62339;DHT22;48368;53.406;6.214;2022-10-16T14:57:41;15.70;99.90
62339;DHT22;48368;53.406;6.214;2022-10-16T15:00:15;15.50;99.90
62339;DHT22;48368;53.406;6.214;2022-10-16T15:02:42;15.50;99.90
62339;DHT22;48368;53.406;6.214;2022-10-16T15:05:22;15.40;99.90
62339;DHT22;48368;53.406;6.214;2022-10-16T15:07:49;15.30;99.90
62339;DHT22;48368;53.406;6.214;2022-10-16T15:10:19;15.20;99.90
62339;DHT22;48368;53.406;6.214;2022-10-16T15:12:46;15.10;99.90
62339;DHT22;48368;53.406;6.214;2022-10-16T15:17:54;15.10;99.90
62339;DHT22;48368;53.406;6.214;2022-10-16T15:20:27;15.00;99.90
62339;DHT22;48368;53.406;6.214;2022-10-16T15:22:53;14.90;99.90
62339;DHT22;48368;53.406;6.214;2022-10-16T15:25:45;14.90;99.90
62339;DHT22;48368;53.406;6.214;2022-10-16T15:28:11;14.80;99.90
62339;DHT22;48368;53.406;6.214;2022-10-16T15:30:38;14.80;99.90
62339;DHT22;48368;53.406;6.214;2022-10-16T15:33:05;14.70;99.90
62339;DHT22;48368;53.406;6.214;2022-10-16T15:35:31;14.60;99.90
62339;DHT22;48368;53.406;6.214;2022-10-16T15:37:57;14.60;99.90
62339;DHT22;48368;53.406;6.214;2022-10-16T15:40:23;14.50;99.90
62339;DHT22;48368;53.406;6.214;2022-10-16T15:42:49;14.50;99.90
62339;DHT22;48368;53.406;6.214;2022-10-16T15:45:15;14.50;99.90
62339;DHT22;48368;53.406;6.214;2022-10-16T15:47:41;14.40;99.90
62339;DHT22;48368;53.406;6.214;2022-10-16T15:50:10;14.40;99.90
62339;DHT22;48368;53.406;6.214;2022-10-16T15:52:37;14.40;99.90
62339;DHT22;48368;53.406;6.214;2022-10-16T15:55:06;14.30;99.90
62339;DHT22;48368;53.406;6.214;2022-10-16T15:57:31;14.20;99.90
62339;DHT22;48368;53.406;6.214;2022-10-16T15:59:57;14.10;99.90
62339;DHT22;48368;53.406;6.214;2022-10-16T16:02:22;14.10;99.90
62339;DHT22;48368;53.406;6.214;2022-10-16T16:04:48;14.00;99.90
62339;DHT22;48368;53.406;6.214;2022-10-16T16:07:14;14.00;99.90
62339;DHT22;48368;53.406;6.214;2022-10-16T16:09:39;14.00;99.90
62339;DHT22;48368;53.406;6.214;2022-10-16T16:12:05;13.90;99.90
62339;DHT22;48368;53.406;6.214;2022-10-16T16:14:31;13.90;99.90
62339;DHT22;48368;53.406;6.214;2022-10-16T16:16:57;13.70;99.90
62339;DHT22;48368;53.406;6.214;2022-10-16T16:19:23;13.70;99.90
62339;DHT22;48368;53.406;6.214;2022-10-16T16:21:49;13.60;99.90
62339;DHT22;48368;53.406;6.214;2022-10-16T16:24:15;13.50;99.90
62339;DHT22;48368;53.406;6.214;2022-10-16T16:26:41;13.40;99.90
62339;DHT22;48368;53.406;6.214;2022-10-16T16:29:13;13.40;99.90
62339;DHT22;48368;53.406;6.214;2022-10-16T16:31:40;13.30;99.90
62339;DHT22;48368;53.406;6.214;2022-10-16T16:34:06;13.20;99.90
62339;DHT22;48368;53.406;6.214;2022-10-16T16:36:34;13.10;99.90
62339;DHT22;48368;53.406;6.214;2022-10-16T16:39:00;13.10;99.90
62339;DHT22;48368;53.406;6.214;2022-10-16T16:41:27;13.10;99.90
62339;DHT22;48368;53.406;6.214;2022-10-16T16:43:54;13.00;99.90
62339;DHT22;48368;53.406;6.214;2022-10-16T16:46:20;13.00;99.90
62339;DHT22;48368;53.406;6.214;2022-10-16T16:48:46;13.00;99.90
62339;DHT22;48368;53.406;6.214;2022-10-16T16:51:15;12.90;99.90
62339;DHT22;48368;53.406;6.214;2022-10-16T16:53:46;12.80;99.90
62339;DHT22;48368;53.406;6.214;2022-10-16T16:56:13;12.80;99.90
62339;DHT22;48368;53.406;6.214;2022-10-16T16:58:39;12.70;99.90
62339;DHT22;48368;53.406;6.214;2022-10-16T17:01:05;12.60;99.90
62339;DHT22;48368;53.406;6.214;2022-10-16T17:03:33;12.60;99.90
62339;DHT22;48368;53.406;6.214;2022-10-16T17:08:26;12.50;99.90
62339;DHT22;48368;53.406;6.214;2022-10-16T17:10:52;12.40;99.90
62339;DHT22;48368;53.406;6.214;2022-10-16T17:13:24;12.40;99.90
62339;DHT22;48368;53.406;6.214;2022-10-16T17:15:51;12.30;99.90
62339;DHT22;48368;53.406;6.214;2022-10-16T17:18:17;12.20;99.90
62339;DHT22;48368;53.406;6.214;2022-10-16T17:20:43;12.20;99.90
62339;DHT22;48368;53.406;6.214;2022-10-16T17:23:09;12.20;99.90
62339;DHT22;48368;53.406;6.214;2022-10-16T17:25:37;12.20;99.90
62339;DHT22;48368;53.406;6.214;2022-10-16T17:28:03;12.10;99.90
62339;DHT22;48368;53.406;6.214;2022-10-16T17:30:29;12.10;99.90
62339;DHT22;48368;53.406;6.214;2022-10-16T17:32:54;12.10;99.90
62339;DHT22;48368;53.406;6.214;2022-10-16T17:35:20;12.00;99.90
62339;DHT22;48368;53.406;6.214;2022-10-16T17:37:45;11.90;99.90
62339;DHT22;48368;53.406;6.214;2022-10-16T17:40:11;11.90;99.90
62339;DHT22;48368;53.406;6.214;2022-10-16T17:42:37;11.90;99.90
62339;DHT22;48368;53.406;6.214;2022-10-16T17:45:03;11.80;99.90
62339;DHT22;48368;53.406;6.214;2022-10-16T17:47:29;11.80;99.90
62339;DHT22;48368;53.406;6.214;2022-10-16T17:49:54;11.80;99.90
62339;DHT22;48368;53.406;6.214;2022-10-16T17:52:21;11.80;99.90
62339;DHT22;48368;53.406;6.214;2022-10-16T17:54:50;11.70;99.90
62339;DHT22;48368;53.406;6.214;2022-10-16T17:57:17;11.70;99.90